sensor_id;sensor_type;location;lat;lon;timestamp;P1;durP1;ratioP1;P2;durP2;ratioP2
1507;SDS011;745;48.586;10.032;2024-01-15T00:00:39;55.90;;;22.97;;
1507;SDS011;745;48.586;10.032;2024-01-15T00:02:39;48.25;;;21.70;;
1507;SDS011;745;48.586;10.032;2024-01-15T00:04:40;43.00;;;19.13;;
1507;SDS011;745;48.586;10.032;2024-01-15T00:06:40;45.57;;;20.00;;
1507;SDS011;745;48.586;10.032;2024-01-15T00:08:41;47.20;;;19.90;;
1507;SDS011;745;48.586;10.032;2024-01-15T00:10:41;43.67;;;22.33;;
1507;SDS011;745;48.586;10.032;2024-01-15T00:12:42;39.00;;;18.37;;
1507;SDS011;745;48.586;10.032;2024-01-15T00:14:42;48.67;;;22.47;;
1507;SDS011;745;48.586;10.032;2024-01-15T00:16:42;49.00;;;20.73;;
1507;SDS011;745;48.586;10.032;2024-01-15T00:18:42;32.37;;;19.03;;
1507;SDS011;745;48.586;10.032;2024-01-15T00:20:43;44.33;;;20.10;;
1507;SDS011;745;48.586;10.032;2024-01-15T00:22:43;41.83;;;20.50;;
1507;SDS011;745;48.586;10.032;2024-01-15T00:24:43;43.17;;;19.43;;
1507;SDS011;745;48.586;10.032;2024-01-15T00:26:44;46.23;;;20.67;;
1507;SDS011;745;48.586;10.032;2024-01-15T00:28:44;42.43;;;17.63;;
1507;SDS011;745;48.586;10.032;2024-01-15T00:30:44;40.10;;;17.40;;
1507;SDS011;745;48.586;10.032;2024-01-15T00:32:45;39.30;;;19.70;;
1507;SDS011;745;48.586;10.032;2024-01-15T00:34:45;41.93;;;19.30;;
1507;SDS011;745;48.586;10.032;2024-01-15T00:39:11;45.38;;;19.48;;
1507;SDS011;745;48.586;10.032;2024-01-15T00:41:11;38.23;;;17.23;;
1507;SDS011;745;48.586;10.032;2024-01-15T00:43:11;46.10;;;17.50;;
1507;SDS011;745;48.586;10.032;2024-01-15T00:45:12;37.40;;;17.90;;
1507;SDS011;745;48.586;10.032;2024-01-15T00:47:12;40.23;;;18.50;;
1507;SDS011;745;48.586;10.032;2024-01-15T00:49:13;37.63;;;17.57;;
1507;SDS011;745;48.586;10.032;2024-01-15T00:51:13;36.33;;;18.70;;
1507;SDS011;745;48.586;10.032;2024-01-15T00:53:14;42.10;;;19.37;;
1507;SDS011;745;48.586;10.032;2024-01-15T00:55:14;40.00;;;18.83;;
1507;SDS011;745;48.586;10.032;2024-01-15T00:57:14;46.40;;;18.80;;
1507;SDS011;745;48.586;10.032;2024-01-15T00:59:15;43.20;;;19.33;;
1507;SDS011;745;48.586;10.032;2024-01-15T01:01:15;39.60;;;18.20;;
1507;SDS011;745;48.586;10.032;2024-01-15T01:03:15;43.57;;;18.37;;
1507;SDS011;745;48.586;10.032;2024-01-15T01:05:15;39.47;;;18.40;;
1507;SDS011;745;48.586;10.032;2024-01-15T01:07:16;42.30;;;19.83;;
1507;SDS011;745;48.586;10.032;2024-01-15T01:09:16;44.50;;;18.30;;
1507;SDS011;745;48.586;10.032;2024-01-15T01:11:16;36.70;;;17.50;;
1507;SDS011;745;48.586;10.032;2024-01-15T01:13:17;40.72;;;18.15;;
1507;SDS011;745;48.586;10.032;2024-01-15T01:15:18;37.73;;;17.20;;
1507;SDS011;745;48.586;10.032;2024-01-15T01:17:18;45.67;;;17.40;;
1507;SDS011;745;48.586;10.032;2024-01-15T01:19:18;36.73;;;16.20;;
1507;SDS011;745;48.586;10.032;2024-01-15T01:21:19;34.40;;;16.80;;
1507;SDS011;745;48.586;10.032;2024-01-15T01:23:19;41.30;;;18.00;;
1507;SDS011;745;48.586;10.032;2024-01-15T01:25:19;33.07;;;15.67;;
1507;SDS011;745;48.586;10.032;2024-01-15T01:27:20;37.87;;;16.73;;
1507;SDS011;745;48.586;10.032;2024-01-15T01:29:20;28.70;;;15.93;;
1507;SDS011;745;48.586;10.032;2024-01-15T01:31:20;29.43;;;16.03;;
1507;SDS011;745;48.586;10.032;2024-01-15T01:33:21;37.83;;;15.40;;
1507;SDS011;745;48.586;10.032;2024-01-15T01:35:21;34.00;;;16.10;;
1507;SDS011;745;48.586;10.032;2024-01-15T01:37:22;30.45;;;13.85;;
1507;SDS011;745;48.586;10.032;2024-01-15T01:39:22;31.27;;;14.40;;
1507;SDS011;745;48.586;10.032;2024-01-15T01:41:22;29.47;;;15.20;;
1507;SDS011;745;48.586;10.032;2024-01-15T01:43:24;27.27;;;13.57;;
1507;SDS011;745;48.586;10.032;2024-01-15T01:45:24;30.23;;;13.37;;
1507;SDS011;745;48.586;10.032;2024-01-15T01:47:24;30.50;;;14.77;;
1507;SDS011;745;48.586;10.032;2024-01-15T01:49:26;32.90;;;14.07;;
1507;SDS011;745;48.586;10.032;2024-01-15T01:51:27;29.10;;;13.93;;
1507;SDS011;745;48.586;10.032;2024-01-15T01:53:27;32.80;;;13.30;;
1507;SDS011;745;48.586;10.032;2024-01-15T01:55:28;26.52;;;13.07;;
1507;SDS011;745;48.586;10.032;2024-01-15T01:57:30;25.10;;;12.03;;
1507;SDS011;745;48.586;10.032;2024-01-15T01:59:31;24.67;;;13.60;;
1507;SDS011;745;48.586;10.032;2024-01-15T02:01:32;28.40;;;13.13;;
1507;SDS011;745;48.586;10.032;2024-01-15T02:03:32;27.67;;;13.30;;
1507;SDS011;745;48.586;10.032;2024-01-15T02:05:33;20.50;;;12.27;;
1507;SDS011;745;48.586;10.032;2024-01-15T02:07:34;26.60;;;13.20;;
1507;SDS011;745;48.586;10.032;2024-01-15T02:09:35;27.55;;;13.52;;
1507;SDS011;745;48.586;10.032;2024-01-15T02:11:36;26.87;;;12.70;;
1507;SDS011;745;48.586;10.032;2024-01-15T02:13:36;24.20;;;11.47;;
1507;SDS011;745;48.586;10.032;2024-01-15T19:48:43;7.95;;;5.72;;
1507;SDS011;745;48.586;10.032;2024-01-15T19:50:43;10.07;;;5.65;;
1507;SDS011;745;48.586;10.032;2024-01-15T19:52:44;9.80;;;6.80;;
1507;SDS011;745;48.586;10.032;2024-01-15T19:54:44;20.83;;;11.10;;
1507;SDS011;745;48.586;10.032;2024-01-15T19:56:44;12.33;;;6.97;;
1507;SDS011;745;48.586;10.032;2024-01-15T19:58:45;9.50;;;5.70;;
1507;SDS011;745;48.586;10.032;2024-01-15T20:00:49;9.43;;;5.67;;
1507;SDS011;745;48.586;10.032;2024-01-15T20:03:09;13.07;;;5.43;;
1507;SDS011;745;48.586;10.032;2024-01-15T20:05:34;10.02;;;5.30;;
1507;SDS011;745;48.586;10.032;2024-01-15T20:08:28;10.95;;;7.20;;
1507;SDS011;745;48.586;10.032;2024-01-15T20:11:20;12.73;;;5.43;;
1507;SDS011;745;48.586;10.032;2024-01-15T20:14:36;11.48;;;5.30;;
1507;SDS011;745;48.586;10.032;2024-01-15T20:17:43;6.88;;;4.07;;
1507;SDS011;745;48.586;10.032;2024-01-15T20:20:18;6.20;;;4.40;;
1507;SDS011;745;48.586;10.032;2024-01-15T20:23:05;5.13;;;3.60;;
1507;SDS011;745;48.586;10.032;2024-01-15T20:25:09;4.75;;;3.75;;
1507;SDS011;745;48.586;10.032;2024-01-15T20:27:48;7.72;;;3.97;;
1507;SDS011;745;48.586;10.032;2024-01-15T20:30:17;5.15;;;4.38;;
1507;SDS011;745;48.586;10.032;2024-01-15T20:32:59;5.20;;;3.30;;
1507;SDS011;745;48.586;10.032;2024-01-15T20:35:00;5.07;;;3.85;;
1507;SDS011;745;48.586;10.032;2024-01-15T20:37:00;4.07;;;3.20;;
1507;SDS011;745;48.586;10.032;2024-01-15T20:39:00;5.13;;;4.10;;
1507;SDS011;745;48.586;10.032;2024-01-15T20:41:02;7.63;;;5.57;;
1507;SDS011;745;48.586;10.032;2024-01-15T20:43:03;5.70;;;3.53;;
1507;SDS011;745;48.586;10.032;2024-01-15T20:45:04;4.68;;;3.50;;
1507;SDS011;745;48.586;10.032;2024-01-15T20:47:05;4.90;;;3.80;;
1507;SDS011;745;48.586;10.032;2024-01-15T20:49:05;3.97;;;3.57;;
1507;SDS011;745;48.586;10.032;2024-01-15T20:51:06;4.33;;;3.80;;
1507;SDS011;745;48.586;10.032;2024-01-15T20:53:06;5.20;;;3.50;;
1507;SDS011;745;48.586;10.032;2024-01-15T20:55:06;4.33;;;3.60;;
1507;SDS011;745;48.586;10.032;2024-01-15T20:57:08;4.68;;;3.47;;
1507;SDS011;745;48.586;10.032;2024-01-15T20:59:08;3.80;;;3.13;;
1507;SDS011;745;48.586;10.032;2024-01-15T21:01:09;3.83;;;3.53;;
1507;SDS011;745;48.586;10.032;2024-01-15T21:03:09;4.53;;;3.80;;
1507;SDS011;745;48.586;10.032;2024-01-15T21:05:10;5.53;;;3.60;;
1507;SDS011;745;48.586;10.032;2024-01-15T21:07:10;3.60;;;3.30;;
1507;SDS011;745;48.586;10.032;2024-01-15T21:09:10;3.67;;;3.37;;
1507;SDS011;745;48.586;10.032;2024-01-15T21:11:12;4.78;;;3.50;;
1507;SDS011;745;48.586;10.032;2024-01-15T21:13:13;5.95;;;3.63;;
1507;SDS011;745;48.586;10.032;2024-01-15T21:15:15;5.10;;;3.43;;
1507;SDS011;745;48.586;10.032;2024-01-15T21:17:16;7.13;;;3.63;;
1507;SDS011;745;48.586;10.032;2024-01-15T21:19:16;4.40;;;3.70;;
1507;SDS011;745;48.586;10.032;2024-01-15T21:21:16;4.70;;;3.43;;
1507;SDS011;745;48.586;10.032;2024-01-15T21:23:17;4.73;;;3.83;;
1507;SDS011;745;48.586;10.032;2024-01-15T21:25:17;4.00;;;3.07;;
1507;SDS011;745;48.586;10.032;2024-01-15T21:27:17;3.80;;;3.20;;
1507;SDS011;745;48.586;10.032;2024-01-15T21:29:18;7.00;;;3.73;;
1507;SDS011;745;48.586;10.032;2024-01-15T21:31:18;4.77;;;3.40;;
1507;SDS011;745;48.586;10.032;2024-01-15T21:33:18;5.30;;;4.50;;
1507;SDS011;745;48.586;10.032;2024-01-15T21:35:19;4.00;;;3.03;;
1507;SDS011;745;48.586;10.032;2024-01-15T21:37:19;5.90;;;4.00;;
1507;SDS011;745;48.586;10.032;2024-01-15T21:39:19;3.87;;;3.43;;
1507;SDS011;745;48.586;10.032;2024-01-15T21:41:20;3.87;;;3.20;;
1507;SDS011;745;48.586;10.032;2024-01-15T21:43:20;4.67;;;3.43;;
1507;SDS011;745;48.586;10.032;2024-01-15T21:45:21;6.83;;;3.53;;
1507;SDS011;745;48.586;10.032;2024-01-15T21:47:21;5.27;;;3.80;;
1507;SDS011;745;48.586;10.032;2024-01-15T21:49:22;4.10;;;3.73;;
1507;SDS011;745;48.586;10.032;2024-01-15T21:51:22;5.30;;;3.77;;
1507;SDS011;745;48.586;10.032;2024-01-15T21:53:22;3.80;;;3.30;;
1507;SDS011;745;48.586;10.032;2024-01-15T21:55:23;4.23;;;3.40;;
1507;SDS011;745;48.586;10.032;2024-01-15T21:57:23;3.50;;;3.20;;
1507;SDS011;745;48.586;10.032;2024-01-15T21:59:23;4.20;;;3.33;;
1507;SDS011;745;48.586;10.032;2024-01-15T22:01:26;4.50;;;3.28;;
1507;SDS011;745;48.586;10.032;2024-01-15T22:03:26;3.50;;;3.20;;
1507;SDS011;745;48.586;10.032;2024-01-15T22:05:27;5.45;;;3.38;;
1507;SDS011;745;48.586;10.032;2024-01-15T22:07:28;3.53;;;3.23;;
1507;SDS011;745;48.586;10.032;2024-01-15T22:09:28;5.00;;;3.33;;
1507;SDS011;745;48.586;10.032;2024-01-15T22:11:29;5.80;;;3.60;;
1507;SDS011;745;48.586;10.032;2024-01-15T22:13:29;3.60;;;3.30;;
1507;SDS011;745;48.586;10.032;2024-01-15T22:15:30;5.33;;;3.20;;
1507;SDS011;745;48.586;10.032;2024-01-15T22:17:30;4.17;;;2.80;;
1507;SDS011;745;48.586;10.032;2024-01-15T22:19:31;3.60;;;3.13;;
1507;SDS011;745;48.586;10.032;2024-01-15T22:21:40;5.20;;;3.28;;
1507;SDS011;745;48.586;10.032;2024-01-15T22:23:41;4.60;;;3.70;;
1507;SDS011;745;48.586;10.032;2024-01-15T22:25:42;6.17;;;3.97;;
1507;SDS011;745;48.586;10.032;2024-01-15T22:27:42;5.83;;;3.60;;
1507;SDS011;745;48.586;10.032;2024-01-15T22:29:42;6.03;;;3.60;;
1507;SDS011;745;48.586;10.032;2024-01-15T22:31:43;4.10;;;3.70;;
1507;SDS011;745;48.586;10.032;2024-01-15T22:33:43;4.13;;;3.73;;
1507;SDS011;745;48.586;10.032;2024-01-15T22:35:43;4.40;;;3.60;;
1507;SDS011;745;48.586;10.032;2024-01-15T22:37:43;6.77;;;3.30;;
1507;SDS011;745;48.586;10.032;2024-01-15T22:39:44;4.10;;;3.70;;
1507;SDS011;745;48.586;10.032;2024-01-15T22:41:44;5.80;;;3.97;;
1507;SDS011;745;48.586;10.032;2024-01-15T22:43:44;6.47;;;3.73;;
1507;SDS011;745;48.586;10.032;2024-01-15T22:45:45;5.10;;;3.37;;
1507;SDS011;745;48.586;10.032;2024-01-15T22:47:46;5.50;;;4.80;;
1507;SDS011;745;48.586;10.032;2024-01-15T22:49:46;5.10;;;3.60;;
1507;SDS011;745;48.586;10.032;2024-01-15T22:51:46;5.60;;;3.93;;
1507;SDS011;745;48.586;10.032;2024-01-15T22:53:47;5.97;;;3.27;;
1507;SDS011;745;48.586;10.032;2024-01-15T22:55:47;4.53;;;2.93;;
1507;SDS011;745;48.586;10.032;2024-01-15T22:57:47;4.90;;;3.77;;
1507;SDS011;745;48.586;10.032;2024-01-15T22:59:48;5.40;;;3.60;;
1507;SDS011;745;48.586;10.032;2024-01-15T23:01:48;10.10;;;5.97;;
1507;SDS011;745;48.586;10.032;2024-01-15T23:03:48;4.43;;;3.50;;
1507;SDS011;745;48.586;10.032;2024-01-15T23:05:48;4.03;;;3.63;;
1507;SDS011;745;48.586;10.032;2024-01-15T23:07:49;4.20;;;3.53;;
1507;SDS011;745;48.586;10.032;2024-01-15T23:09:51;3.90;;;3.50;;
1507;SDS011;745;48.586;10.032;2024-01-15T23:11:51;3.57;;;3.27;;
1507;SDS011;745;48.586;10.032;2024-01-15T23:13:51;4.43;;;3.43;;
1507;SDS011;745;48.586;10.032;2024-01-15T23:15:52;5.47;;;3.83;;
1507;SDS011;745;48.586;10.032;2024-01-15T23:17:53;4.80;;;4.20;;
1507;SDS011;745;48.586;10.032;2024-01-15T23:19:53;3.60;;;3.20;;
1507;SDS011;745;48.586;10.032;2024-01-15T23:21:53;5.30;;;3.87;;
1507;SDS011;745;48.586;10.032;2024-01-15T23:23:54;4.27;;;3.40;;
1507;SDS011;745;48.586;10.032;2024-01-15T23:25:54;5.40;;;3.80;;
1507;SDS011;745;48.586;10.032;2024-01-15T23:27:54;8.83;;;4.20;;
1507;SDS011;745;48.586;10.032;2024-01-15T23:29:55;3.70;;;3.40;;
1507;SDS011;745;48.586;10.032;2024-01-15T23:31:55;3.83;;;3.47;;
1507;SDS011;745;48.586;10.032;2024-01-15T23:33:56;4.55;;;3.60;;
1507;SDS011;745;48.586;10.032;2024-01-15T23:35:57;5.23;;;3.90;;
1507;SDS011;745;48.586;10.032;2024-01-15T23:38:00;5.65;;;3.75;;
1507;SDS011;745;48.586;10.032;2024-01-15T23:40:00;5.33;;;3.57;;
1507;SDS011;745;48.586;10.032;2024-01-15T23:42:01;4.10;;;3.57;;
1507;SDS011;745;48.586;10.032;2024-01-15T23:44:02;4.83;;;3.33;;
1507;SDS011;745;48.586;10.032;2024-01-15T23:46:05;8.25;;;3.60;;
1507;SDS011;745;48.586;10.032;2024-01-15T23:50:50;7.07;;;3.75;;
1507;SDS011;745;48.586;10.032;2024-01-15T23:52:50;4.50;;;3.53;;
1507;SDS011;745;48.586;10.032;2024-01-15T23:54:51;5.43;;;3.80;;
1507;SDS011;745;48.586;10.032;2024-01-15T23:56:51;3.77;;;3.40;;
1507;SDS011;745;48.586;10.032;2024-01-15T23:58:51;6.93;;;4.07;;
